Cuttingsville, Vermont
Current Conditions -  °F | °C
As of 6:35 PM on Friday 19 Dec 2014 (Local Time) from KRUT Reporting Station
Overcast Overcast  
Wind Chill: -9°   Ceiling: 1900
Heat Index: -4°   Visibility: 10mi
Dew Point: -9°   Wind: 9mph
Humidity: 69%   Direction: 320°NW
Pressure: 30.11"   Gusts: 16mph
Location:  43.49°N, 72.88°W
Report Text: KRUT 192335Z 32008G14KT 10SM OVC019 M04/M09 A3011 RMK AO1
Loading
Personal Weather Stations






























Interactive Weather Map New forecast layout! Learn more

10-Day Weather Forecast

Advertisements
Track Severe Weather on mobile